sensor_id;sensor_type;location;lat;lon;timestamp;pressure;altitude;pressure_sealevel;temperature;humidity
81961;BME280;71462;50.650;6.888;2023-07-24T00:01:06;98769.47;;;19.42;55.97
81961;BME280;71462;50.650;6.888;2023-07-24T00:03:08;98766.06;;;19.49;55.85
81961;BME280;71462;50.650;6.888;2023-07-24T00:05:11;98762.91;;;19.43;55.43
81961;BME280;71462;50.650;6.888;2023-07-24T00:07:14;98772.00;;;19.32;55.71
81961;BME280;71462;50.650;6.888;2023-07-24T00:09:17;98762.59;;;19.22;56.08
81961;BME280;71462;50.650;6.888;2023-07-24T00:11:20;98757.66;;;19.05;57.07
81961;BME280;71462;50.650;6.888;2023-07-24T00:13:23;98760.88;;;19.10;56.52
81961;BME280;71462;50.650;6.888;2023-07-24T00:15:25;98753.22;;;19.16;56.49
81961;BME280;71462;50.650;6.888;2023-07-24T00:17:28;98754.34;;;19.15;56.34
81961;BME280;71462;50.650;6.888;2023-07-24T00:19:30;98744.53;;;19.07;56.43
81961;BME280;71462;50.650;6.888;2023-07-24T00:21:32;98749.47;;;19.24;56.09
81961;BME280;71462;50.650;6.888;2023-07-24T00:23:35;98747.16;;;19.26;55.93
81961;BME280;71462;50.650;6.888;2023-07-24T00:25:39;98748.03;;;19.07;56.39
81961;BME280;71462;50.650;6.888;2023-07-24T00:27:42;98752.25;;;19.31;55.78
81961;BME280;71462;50.650;6.888;2023-07-24T00:29:44;98744.44;;;19.26;55.76
81961;BME280;71462;50.650;6.888;2023-07-24T00:31:47;98738.09;;;19.15;55.93
81961;BME280;71462;50.650;6.888;2023-07-24T00:33:50;98748.13;;;19.11;56.23
81961;BME280;71462;50.650;6.888;2023-07-24T00:35:55;98749.13;;;19.03;56.42
81961;BME280;71462;50.650;6.888;2023-07-24T00:37:57;98742.56;;;19.04;56.63
81961;BME280;71462;50.650;6.888;2023-07-24T00:40:00;98745.81;;;19.13;56.35
81961;BME280;71462;50.650;6.888;2023-07-24T00:42:05;98744.78;;;19.21;56.03
81961;BME280;71462;50.650;6.888;2023-07-24T00:44:08;98752.56;;;19.26;55.97
81961;BME280;71462;50.650;6.888;2023-07-24T00:46:11;98748.44;;;19.36;55.56
81961;BME280;71462;50.650;6.888;2023-07-24T00:48:13;98740.22;;;19.55;55.24
81961;BME280;71462;50.650;6.888;2023-07-24T00:50:16;98738.88;;;19.72;54.53
81961;BME280;71462;50.650;6.888;2023-07-24T00:52:19;98738.50;;;19.73;54.62
81961;BME280;71462;50.650;6.888;2023-07-24T00:54:23;98733.59;;;19.82;54.32
81961;BME280;71462;50.650;6.888;2023-07-24T00:56:26;98717.94;;;20.02;53.69
81961;BME280;71462;50.650;6.888;2023-07-24T00:58:31;98724.28;;;20.13;53.51
81961;BME280;71462;50.650;6.888;2023-07-24T01:00:35;98723.97;;;20.22;53.17
81961;BME280;71462;50.650;6.888;2023-07-24T01:02:37;98722.91;;;20.30;53.05
81961;BME280;71462;50.650;6.888;2023-07-24T01:04:40;98718.19;;;20.27;53.10
81961;BME280;71462;50.650;6.888;2023-07-24T01:06:43;98711.66;;;20.32;53.13
81961;BME280;71462;50.650;6.888;2023-07-24T01:08:45;98712.97;;;20.45;52.53
81961;BME280;71462;50.650;6.888;2023-07-24T01:10:48;98710.44;;;20.26;52.79
81961;BME280;71462;50.650;6.888;2023-07-24T01:12:56;98708.97;;;20.35;52.80
81961;BME280;71462;50.650;6.888;2023-07-24T01:15:07;98696.78;;;20.59;51.88
81961;BME280;71462;50.650;6.888;2023-07-24T01:17:15;98688.59;;;20.52;51.46
81961;BME280;71462;50.650;6.888;2023-07-24T01:19:24;98687.56;;;20.27;52.61
81961;BME280;71462;50.650;6.888;2023-07-24T01:21:38;98691.44;;;20.26;52.64
81961;BME280;71462;50.650;6.888;2023-07-24T01:23:58;98687.03;;;20.10;52.97
81961;BME280;71462;50.650;6.888;2023-07-24T01:26:03;98683.19;;;20.15;53.10
81961;BME280;71462;50.650;6.888;2023-07-24T01:28:07;98693.69;;;20.20;52.75
81961;BME280;71462;50.650;6.888;2023-07-24T01:30:10;98701.59;;;20.32;52.77
81961;BME280;71462;50.650;6.888;2023-07-24T01:32:13;98700.56;;;20.44;52.15
81961;BME280;71462;50.650;6.888;2023-07-24T01:34:16;98700.53;;;20.40;52.45
81961;BME280;71462;50.650;6.888;2023-07-24T01:36:19;98693.19;;;20.44;52.35
81961;BME280;71462;50.650;6.888;2023-07-24T01:38:23;98685.22;;;20.25;52.54
81961;BME280;71462;50.650;6.888;2023-07-24T01:40:26;98684.97;;;20.37;52.65
81961;BME280;71462;50.650;6.888;2023-07-24T01:42:30;98678.84;;;20.44;53.04
81961;BME280;71462;50.650;6.888;2023-07-24T01:44:33;98682.72;;;20.43;52.36
81961;BME280;71462;50.650;6.888;2023-07-24T01:46:36;98682.34;;;20.44;52.77
81961;BME280;71462;50.650;6.888;2023-07-24T01:48:38;98671.13;;;20.49;52.48
81961;BME280;71462;50.650;6.888;2023-07-24T01:50:41;98678.13;;;20.54;51.83
81961;BME280;71462;50.650;6.888;2023-07-24T01:52:43;98680.09;;;20.57;52.11
81961;BME280;71462;50.650;6.888;2023-07-24T01:54:46;98676.97;;;20.55;52.21
81961;BME280;71462;50.650;6.888;2023-07-24T01:56:49;98679.34;;;20.60;52.33
81961;BME280;71462;50.650;6.888;2023-07-24T01:58:53;98680.16;;;20.64;51.97
81961;BME280;71462;50.650;6.888;2023-07-24T02:00:55;98673.56;;;20.65;52.55
81961;BME280;71462;50.650;6.888;2023-07-24T02:02:58;98679.75;;;20.62;53.17
81961;BME280;71462;50.650;6.888;2023-07-24T02:05:01;98663.09;;;20.67;52.29
81961;BME280;71462;50.650;6.888;2023-07-24T02:07:04;98665.66;;;20.46;53.42
81961;BME280;71462;50.650;6.888;2023-07-24T02:09:06;98661.78;;;20.47;53.06
81961;BME280;71462;50.650;6.888;2023-07-24T02:11:09;98661.00;;;20.43;53.42
81961;BME280;71462;50.650;6.888;2023-07-24T02:13:12;98667.59;;;20.45;53.34
81961;BME280;71462;50.650;6.888;2023-07-24T02:15:16;98665.25;;;20.44;53.08
81961;BME280;71462;50.650;6.888;2023-07-24T02:17:18;98657.91;;;20.48;52.85
81961;BME280;71462;50.650;6.888;2023-07-24T02:19:21;98658.13;;;20.29;52.98
81961;BME280;71462;50.650;6.888;2023-07-24T02:21:23;98660.25;;;20.09;53.26
81961;BME280;71462;50.650;6.888;2023-07-24T02:23:26;98653.91;;;19.94;53.54
81961;BME280;71462;50.650;6.888;2023-07-24T02:25:29;98640.44;;;20.05;53.41
81961;BME280;71462;50.650;6.888;2023-07-24T02:27:32;98635.16;;;20.19;53.04
81961;BME280;71462;50.650;6.888;2023-07-24T02:29:36;98624.88;;;20.39;52.78
81961;BME280;71462;50.650;6.888;2023-07-24T02:31:40;98622.88;;;20.32;52.43
81961;BME280;71462;50.650;6.888;2023-07-24T02:33:41;98629.38;;;20.24;52.57
81961;BME280;71462;50.650;6.888;2023-07-24T02:35:44;98631.72;;;20.26;52.75
81961;BME280;71462;50.650;6.888;2023-07-24T02:37:47;98627.03;;;20.23;52.89
81961;BME280;71462;50.650;6.888;2023-07-24T02:39:49;98615.31;;;20.11;53.22
81961;BME280;71462;50.650;6.888;2023-07-24T02:41:51;98613.72;;;20.07;53.31
81961;BME280;71462;50.650;6.888;2023-07-24T02:43:53;98603.22;;;20.05;53.51
81961;BME280;71462;50.650;6.888;2023-07-24T02:46:00;98603.84;;;19.88;53.72
81961;BME280;71462;50.650;6.888;2023-07-24T02:48:04;98603.09;;;19.91;53.70
81961;BME280;71462;50.650;6.888;2023-07-24T02:50:07;98601.53;;;19.86;53.77
81961;BME280;71462;50.650;6.888;2023-07-24T02:52:10;98603.16;;;19.95;53.78
81961;BME280;71462;50.650;6.888;2023-07-24T02:54:13;98593.34;;;19.83;53.91
81961;BME280;71462;50.650;6.888;2023-07-24T02:56:15;98593.31;;;19.79;53.72
81961;BME280;71462;50.650;6.888;2023-07-24T02:58:18;98594.38;;;19.71;53.96
81961;BME280;71462;50.650;6.888;2023-07-24T03:00:19;98588.44;;;19.25;55.04
81961;BME280;71462;50.650;6.888;2023-07-24T03:02:22;98594.63;;;19.25;55.07
81961;BME280;71462;50.650;6.888;2023-07-24T03:04:25;98589.97;;;19.56;54.57
81961;BME280;71462;50.650;6.888;2023-07-24T03:06:28;98580.34;;;19.62;54.24
81961;BME280;71462;50.650;6.888;2023-07-24T03:08:31;98576.66;;;19.44;54.31
81961;BME280;71462;50.650;6.888;2023-07-24T03:10:34;98571.63;;;19.42;54.62
81961;BME280;71462;50.650;6.888;2023-07-24T03:12:36;98574.56;;;19.30;54.91
81961;BME280;71462;50.650;6.888;2023-07-24T03:14:39;98580.44;;;19.06;55.44
81961;BME280;71462;50.650;6.888;2023-07-24T03:16:42;98577.53;;;19.18;55.30
81961;BME280;71462;50.650;6.888;2023-07-24T03:18:44;98572.97;;;18.95;55.96
81961;BME280;71462;50.650;6.888;2023-07-24T03:20:48;98565.03;;;19.10;55.14
81961;BME280;71462;50.650;6.888;2023-07-24T03:22:51;98574.09;;;19.24;54.91
81961;BME280;71462;50.650;6.888;2023-07-24T03:24:54;98574.91;;;19.28;54.40
81961;BME280;71462;50.650;6.888;2023-07-24T03:26:56;98582.75;;;19.04;55.17
81961;BME280;71462;50.650;6.888;2023-07-24T03:29:00;98568.34;;;18.96;55.22
81961;BME280;71462;50.650;6.888;2023-07-24T03:31:02;98565.75;;;19.07;55.01
81961;BME280;71462;50.650;6.888;2023-07-24T03:33:05;98569.81;;;18.90;55.47
81961;BME280;71462;50.650;6.888;2023-07-24T03:35:09;98566.94;;;18.79;55.67
81961;BME280;71462;50.650;6.888;2023-07-24T03:37:12;98572.34;;;18.79;55.79
81961;BME280;71462;50.650;6.888;2023-07-24T03:39:14;98558.94;;;18.86;55.52
81961;BME280;71462;50.650;6.888;2023-07-24T03:41:17;98569.19;;;19.04;55.21
81961;BME280;71462;50.650;6.888;2023-07-24T03:43:19;98567.22;;;19.01;55.20
81961;BME280;71462;50.650;6.888;2023-07-24T03:45:22;98560.44;;;19.14;54.70
81961;BME280;71462;50.650;6.888;2023-07-24T03:47:25;98567.50;;;19.22;54.78
81961;BME280;71462;50.650;6.888;2023-07-24T03:49:28;98558.22;;;19.23;54.89
81961;BME280;71462;50.650;6.888;2023-07-24T03:51:30;98565.34;;;19.38;54.88
81961;BME280;71462;50.650;6.888;2023-07-24T03:53:35;98571.94;;;19.41;54.42
81961;BME280;71462;50.650;6.888;2023-07-24T03:55:38;98557.75;;;19.51;53.86
81961;BME280;71462;50.650;6.888;2023-07-24T03:57:41;98564.78;;;19.55;54.06
81961;BME280;71462;50.650;6.888;2023-07-24T03:59:43;98561.78;;;19.64;53.75
81961;BME280;71462;50.650;6.888;2023-07-24T04:01:46;98553.69;;;19.68;53.84
81961;BME280;71462;50.650;6.888;2023-07-24T04:03:48;98553.28;;;19.66;53.26
81961;BME280;71462;50.650;6.888;2023-07-24T04:05:51;98555.63;;;19.71;52.62
81961;BME280;71462;50.650;6.888;2023-07-24T04:07:54;98560.56;;;19.58;52.82
81961;BME280;71462;50.650;6.888;2023-07-24T04:09:58;98553.28;;;19.66;52.60
81961;BME280;71462;50.650;6.888;2023-07-24T04:12:04;98556.69;;;19.59;52.52
81961;BME280;71462;50.650;6.888;2023-07-24T04:14:07;98558.91;;;19.50;52.88
81961;BME280;71462;50.650;6.888;2023-07-24T04:16:09;98559.00;;;19.23;53.23
81961;BME280;71462;50.650;6.888;2023-07-24T04:18:12;98565.56;;;19.22;53.50
81961;BME280;71462;50.650;6.888;2023-07-24T04:20:15;98568.88;;;19.09;53.54
81961;BME280;71462;50.650;6.888;2023-07-24T04:22:17;98570.34;;;19.03;53.99
81961;BME280;71462;50.650;6.888;2023-07-24T04:24:20;98571.75;;;18.89;54.04
81961;BME280;71462;50.650;6.888;2023-07-24T04:26:24;98564.53;;;19.01;53.52
81961;BME280;71462;50.650;6.888;2023-07-24T04:28:27;98564.16;;;19.02;54.05
81961;BME280;71462;50.650;6.888;2023-07-24T04:30:29;98567.50;;;18.92;53.72
81961;BME280;71462;50.650;6.888;2023-07-24T04:32:32;98570.91;;;18.85;54.01
81961;BME280;71462;50.650;6.888;2023-07-24T04:34:35;98571.25;;;19.10;53.79
81961;BME280;71462;50.650;6.888;2023-07-24T04:36:37;98567.25;;;19.34;53.07
81961;BME280;71462;50.650;6.888;2023-07-24T04:38:40;98567.91;;;19.57;52.25
81961;BME280;71462;50.650;6.888;2023-07-24T04:40:43;98566.81;;;19.66;52.16
81961;BME280;71462;50.650;6.888;2023-07-24T04:42:48;98578.41;;;19.63;51.96
81961;BME280;71462;50.650;6.888;2023-07-24T04:44:50;98573.66;;;19.52;52.39
81961;BME280;71462;50.650;6.888;2023-07-24T04:46:53;98575.53;;;19.48;52.22
81961;BME280;71462;50.650;6.888;2023-07-24T04:48:57;98584.56;;;19.26;53.08
81961;BME280;71462;50.650;6.888;2023-07-24T04:50:59;98586.91;;;19.27;53.28
81961;BME280;71462;50.650;6.888;2023-07-24T04:53:02;98589.22;;;19.25;52.99
81961;BME280;71462;50.650;6.888;2023-07-24T04:55:05;98591.25;;;19.02;53.31
81961;BME280;71462;50.650;6.888;2023-07-24T04:57:08;98592.78;;;19.33;52.81
81961;BME280;71462;50.650;6.888;2023-07-24T04:59:12;98592.97;;;19.47;52.42
81961;BME280;71462;50.650;6.888;2023-07-24T05:01:14;98576.94;;;19.69;51.97
81961;BME280;71462;50.650;6.888;2023-07-24T05:03:16;98573.47;;;19.72;51.44
81961;BME280;71462;50.650;6.888;2023-07-24T05:05:29;98573.34;;;19.57;52.34
81961;BME280;71462;50.650;6.888;2023-07-24T05:07:33;98581.41;;;19.54;51.86
81961;BME280;71462;50.650;6.888;2023-07-24T05:09:35;98580.72;;;19.61;51.50
81961;BME280;71462;50.650;6.888;2023-07-24T05:11:38;98580.03;;;19.71;51.42
81961;BME280;71462;50.650;6.888;2023-07-24T05:13:41;98579.34;;;19.77;51.32
81961;BME280;71462;50.650;6.888;2023-07-24T05:15:47;98579.81;;;19.86;50.89
81961;BME280;71462;50.650;6.888;2023-07-24T05:17:49;98590.69;;;19.90;51.19
81961;BME280;71462;50.650;6.888;2023-07-24T05:19:52;98591.09;;;19.92;50.96
81961;BME280;71462;50.650;6.888;2023-07-24T05:21:55;98599.41;;;20.10;50.71
81961;BME280;71462;50.650;6.888;2023-07-24T05:23:59;98604.09;;;20.13;50.46
81961;BME280;71462;50.650;6.888;2023-07-24T05:26:03;98603.66;;;20.07;50.02
81961;BME280;71462;50.650;6.888;2023-07-24T05:28:06;98608.44;;;20.25;50.27
81961;BME280;71462;50.650;6.888;2023-07-24T05:30:08;98616.94;;;20.19;50.19
81961;BME280;71462;50.650;6.888;2023-07-24T05:32:13;98625.00;;;20.09;50.46
81961;BME280;71462;50.650;6.888;2023-07-24T05:34:15;98620.00;;;20.14;50.45
81961;BME280;71462;50.650;6.888;2023-07-24T05:36:18;98627.34;;;20.10;50.46
81961;BME280;71462;50.650;6.888;2023-07-24T05:38:19;98628.09;;;20.07;50.50
81961;BME280;71462;50.650;6.888;2023-07-24T05:40:22;98624.53;;;20.03;50.83
81961;BME280;71462;50.650;6.888;2023-07-24T05:42:25;98624.41;;;20.30;49.85
81961;BME280;71462;50.650;6.888;2023-07-24T05:44:27;98622.50;;;20.34;50.05
81961;BME280;71462;50.650;6.888;2023-07-24T05:46:30;98629.94;;;20.40;49.96
81961;BME280;71462;50.650;6.888;2023-07-24T05:48:34;98628.84;;;20.48;49.76
81961;BME280;71462;50.650;6.888;2023-07-24T05:50:37;98636.22;;;20.51;49.75
81961;BME280;71462;50.650;6.888;2023-07-24T05:52:40;98636.28;;;20.62;49.11
81961;BME280;71462;50.650;6.888;2023-07-24T05:54:42;98636.28;;;20.62;49.33
81961;BME280;71462;50.650;6.888;2023-07-24T05:56:46;98639.28;;;20.43;49.53
81961;BME280;71462;50.650;6.888;2023-07-24T05:58:49;98648.06;;;19.92;50.71
81961;BME280;71462;50.650;6.888;2023-07-24T06:00:52;98645.28;;;19.85;51.35
81961;BME280;71462;50.650;6.888;2023-07-24T06:02:56;98644.25;;;19.97;51.12
81961;BME280;71462;50.650;6.888;2023-07-24T06:05:00;98635.09;;;20.12;50.77
81961;BME280;71462;50.650;6.888;2023-07-24T06:07:03;98637.16;;;20.26;50.85
81961;BME280;71462;50.650;6.888;2023-07-24T06:09:06;98628.63;;;20.27;51.22
81961;BME280;71462;50.650;6.888;2023-07-24T06:11:11;98626.94;;;20.56;49.98
81961;BME280;71462;50.650;6.888;2023-07-24T06:13:13;98622.38;;;20.19;49.94
81961;BME280;71462;50.650;6.888;2023-07-24T06:15:16;98627.06;;;20.26;50.52
81961;BME280;71462;50.650;6.888;2023-07-24T06:17:19;98628.88;;;20.56;50.10
81961;BME280;71462;50.650;6.888;2023-07-24T06:19:21;98628.16;;;20.62;49.88
81961;BME280;71462;50.650;6.888;2023-07-24T06:21:25;98620.03;;;20.66;50.27
81961;BME280;71462;50.650;6.888;2023-07-24T06:23:28;98620.34;;;20.57;50.47
81961;BME280;71462;50.650;6.888;2023-07-24T06:25:30;98611.34;;;20.42;49.99
81961;BME280;71462;50.650;6.888;2023-07-24T06:27:33;98609.63;;;20.27;51.13
81961;BME280;71462;50.650;6.888;2023-07-24T06:29:35;98616.03;;;20.49;50.13
81961;BME280;71462;50.650;6.888;2023-07-24T06:31:40;98618.88;;;20.19;50.66
81961;BME280;71462;50.650;6.888;2023-07-24T06:33:43;98620.81;;;20.18;50.40
81961;BME280;71462;50.650;6.888;2023-07-24T06:35:45;98626.91;;;20.49;50.14
81961;BME280;71462;50.650;6.888;2023-07-24T06:37:50;98629.09;;;20.33;50.35
81961;BME280;71462;50.650;6.888;2023-07-24T06:39:52;98634.09;;;20.78;50.18
81961;BME280;71462;50.650;6.888;2023-07-24T06:41:55;98622.06;;;20.79;48.78
81961;BME280;71462;50.650;6.888;2023-07-24T06:43:57;98616.63;;;20.79;49.14
81961;BME280;71462;50.650;6.888;2023-07-24T06:46:00;98625.69;;;21.01;48.15
81961;BME280;71462;50.650;6.888;2023-07-24T06:48:04;98631.69;;;20.70;48.54
81961;BME280;71462;50.650;6.888;2023-07-24T06:50:07;98629.47;;;20.35;49.39
81961;BME280;71462;50.650;6.888;2023-07-24T06:52:10;98622.63;;;20.48;49.01
81961;BME280;71462;50.650;6.888;2023-07-24T06:54:14;98611.59;;;20.78;48.74
81961;BME280;71462;50.650;6.888;2023-07-24T06:56:17;98607.38;;;20.33;49.27
81961;BME280;71462;50.650;6.888;2023-07-24T06:58:20;98609.28;;;20.83;48.87
81961;BME280;71462;50.650;6.888;2023-07-24T07:00:22;98600.16;;;21.13;48.06
81961;BME280;71462;50.650;6.888;2023-07-24T07:02:24;98604.88;;;21.30;47.61
81961;BME280;71462;50.650;6.888;2023-07-24T07:04:27;98599.75;;;21.07;47.45
81961;BME280;71462;50.650;6.888;2023-07-24T07:06:29;98607.25;;;20.70;48.34
81961;BME280;71462;50.650;6.888;2023-07-24T07:08:31;98600.69;;;20.74;48.58
81961;BME280;71462;50.650;6.888;2023-07-24T07:10:34;98601.53;;;20.89;48.52
81961;BME280;71462;50.650;6.888;2023-07-24T07:12:37;98612.59;;;21.21;47.70
81961;BME280;71462;50.650;6.888;2023-07-24T07:14:40;98604.56;;;21.57;47.01
81961;BME280;71462;50.650;6.888;2023-07-24T07:16:42;98598.31;;;21.42;46.27
81961;BME280;71462;50.650;6.888;2023-07-24T07:18:45;98585.81;;;21.27;47.01
81961;BME280;71462;50.650;6.888;2023-07-24T07:20:49;98589.69;;;21.19;47.13
81961;BME280;71462;50.650;6.888;2023-07-24T07:22:55;98588.63;;;21.48;46.77
81961;BME280;71462;50.650;6.888;2023-07-24T07:24:57;98580.88;;;21.64;45.93
81961;BME280;71462;50.650;6.888;2023-07-24T07:27:02;98583.28;;;21.77;45.95
81961;BME280;71462;50.650;6.888;2023-07-24T07:29:04;98585.50;;;21.50;45.64
81961;BME280;71462;50.650;6.888;2023-07-24T07:31:07;98579.63;;;21.30;46.63
81961;BME280;71462;50.650;6.888;2023-07-24T07:33:10;98576.88;;;21.23;46.62
81961;BME280;71462;50.650;6.888;2023-07-24T07:35:13;98579.19;;;21.17;47.59
81961;BME280;71462;50.650;6.888;2023-07-24T07:37:16;98576.22;;;21.61;45.81
81961;BME280;71462;50.650;6.888;2023-07-24T07:39:23;98576.59;;;21.63;45.93
81961;BME280;71462;50.650;6.888;2023-07-24T07:41:26;98579.00;;;21.79;45.48
81961;BME280;71462;50.650;6.888;2023-07-24T07:43:31;98580.56;;;21.94;45.93
81961;BME280;71462;50.650;6.888;2023-07-24T07:45:34;98587.56;;;21.85;45.80
81961;BME280;71462;50.650;6.888;2023-07-24T07:47:36;98592.22;;;21.73;45.59
81961;BME280;71462;50.650;6.888;2023-07-24T07:49:40;98585.59;;;21.71;45.58
81961;BME280;71462;50.650;6.888;2023-07-24T07:51:43;98590.19;;;21.56;45.91
81961;BME280;71462;50.650;6.888;2023-07-24T07:53:45;98583.22;;;21.66;45.66
81961;BME280;71462;50.650;6.888;2023-07-24T07:55:55;98576.28;;;22.00;45.55
81961;BME280;71462;50.650;6.888;2023-07-24T07:57:58;98575.50;;;22.00;45.00
81961;BME280;71462;50.650;6.888;2023-07-24T08:00:02;98578.22;;;21.79;46.23
81961;BME280;71462;50.650;6.888;2023-07-24T08:02:05;98582.16;;;22.13;45.05
81961;BME280;71462;50.650;6.888;2023-07-24T08:04:07;98591.31;;;21.41;45.84
81961;BME280;71462;50.650;6.888;2023-07-24T08:06:13;98580.94;;;21.75;45.49
81961;BME280;71462;50.650;6.888;2023-07-24T08:08:16;98582.53;;;22.12;45.68
81961;BME280;71462;50.650;6.888;2023-07-24T08:10:18;98573.22;;;22.38;44.65
81961;BME280;71462;50.650;6.888;2023-07-24T08:12:21;98581.78;;;22.43;43.92
81961;BME280;71462;50.650;6.888;2023-07-24T08:14:24;98573.97;;;22.56;43.43
81961;BME280;71462;50.650;6.888;2023-07-24T08:16:28;98576.66;;;22.63;43.59
81961;BME280;71462;50.650;6.888;2023-07-24T08:18:31;98560.31;;;22.63;43.73
81961;BME280;71462;50.650;6.888;2023-07-24T08:20:35;98565.00;;;22.70;43.27
81961;BME280;71462;50.650;6.888;2023-07-24T08:22:37;98559.16;;;22.64;43.62
81961;BME280;71462;50.650;6.888;2023-07-24T08:24:40;98574.34;;;21.87;44.28
81961;BME280;71462;50.650;6.888;2023-07-24T08:26:42;98574.72;;;21.96;44.32
81961;BME280;71462;50.650;6.888;2023-07-24T08:28:44;98566.19;;;22.12;43.95
81961;BME280;71462;50.650;6.888;2023-07-24T08:30:55;98557.22;;;22.57;44.27
81961;BME280;71462;50.650;6.888;2023-07-24T08:33:00;98553.25;;;23.01;43.18
81961;BME280;71462;50.650;6.888;2023-07-24T08:35:03;98556.34;;;23.03;43.33
81961;BME280;71462;50.650;6.888;2023-07-24T08:37:06;98546.59;;;23.06;41.82
81961;BME280;71462;50.650;6.888;2023-07-24T08:39:08;98561.28;;;23.26;42.13
81961;BME280;71462;50.650;6.888;2023-07-24T08:41:13;98562.59;;;22.86;42.86
81961;BME280;71462;50.650;6.888;2023-07-24T08:43:16;98562.25;;;22.66;43.24
81961;BME280;71462;50.650;6.888;2023-07-24T08:45:24;98551.38;;;22.55;42.83
81961;BME280;71462;50.650;6.888;2023-07-24T08:47:27;98559.16;;;22.71;42.57
81961;BME280;71462;50.650;6.888;2023-07-24T08:49:33;98560.69;;;22.79;42.88
81961;BME280;71462;50.650;6.888;2023-07-24T08:51:37;98560.75;;;22.44;43.25
81961;BME280;71462;50.650;6.888;2023-07-24T08:53:41;98570.47;;;21.91;44.18
81961;BME280;71462;50.650;6.888;2023-07-24T08:55:45;98553.75;;;22.03;44.39
81961;BME280;71462;50.650;6.888;2023-07-24T08:57:50;98548.72;;;22.38;43.43
81961;BME280;71462;50.650;6.888;2023-07-24T08:59:53;98553.28;;;22.76;42.74
81961;BME280;71462;50.650;6.888;2023-07-24T09:01:56;98549.00;;;22.75;41.78
81961;BME280;71462;50.650;6.888;2023-07-24T09:03:59;98542.34;;;23.01;42.49
81961;BME280;71462;50.650;6.888;2023-07-24T09:06:03;98545.31;;;23.24;41.75
81961;BME280;71462;50.650;6.888;2023-07-24T09:08:09;98536.78;;;23.19;41.36
81961;BME280;71462;50.650;6.888;2023-07-24T09:10:13;98533.47;;;22.69;41.86
81961;BME280;71462;50.650;6.888;2023-07-24T09:12:16;98535.78;;;22.77;42.65
81961;BME280;71462;50.650;6.888;2023-07-24T09:14:26;98533.84;;;22.63;42.17
81961;BME280;71462;50.650;6.888;2023-07-24T09:16:32;98529.47;;;22.91;42.60
81961;BME280;71462;50.650;6.888;2023-07-24T09:18:39;98530.66;;;23.01;42.15
81961;BME280;71462;50.650;6.888;2023-07-24T09:20:43;98519.34;;;23.06;41.44
81961;BME280;71462;50.650;6.888;2023-07-24T09:22:51;98509.34;;;22.71;41.32
81961;BME280;71462;50.650;6.888;2023-07-24T09:25:14;98516.22;;;22.93;42.32
81961;BME280;71462;50.650;6.888;2023-07-24T09:27:17;98515.19;;;22.62;41.62
81961;BME280;71462;50.650;6.888;2023-07-24T09:29:19;98508.19;;;22.68;41.72
81961;BME280;71462;50.650;6.888;2023-07-24T09:31:33;98511.66;;;22.76;41.88
81961;BME280;71462;50.650;6.888;2023-07-24T09:33:40;98505.09;;;22.55;42.69
81961;BME280;71462;50.650;6.888;2023-07-24T09:35:56;98493.09;;;22.17;42.95
81961;BME280;71462;50.650;6.888;2023-07-24T09:38:05;98489.13;;;22.57;42.92
81961;BME280;71462;50.650;6.888;2023-07-24T09:40:10;98487.41;;;22.95;41.53
81961;BME280;71462;50.650;6.888;2023-07-24T09:42:13;98477.97;;;23.21;40.45
81961;BME280;71462;50.650;6.888;2023-07-24T09:44:16;98481.34;;;23.40;41.37
81961;BME280;71462;50.650;6.888;2023-07-24T09:46:18;98481.19;;;23.68;41.42
81961;BME280;71462;50.650;6.888;2023-07-24T09:48:23;98478.16;;;23.52;41.59
81961;BME280;71462;50.650;6.888;2023-07-24T09:50:29;98469.34;;;23.85;40.52
81961;BME280;71462;50.650;6.888;2023-07-24T09:52:31;98468.50;;;23.92;40.64
81961;BME280;71462;50.650;6.888;2023-07-24T09:54:42;98463.09;;;23.85;40.40
81961;BME280;71462;50.650;6.888;2023-07-24T09:56:47;98457.31;;;23.79;39.80
81961;BME280;71462;50.650;6.888;2023-07-24T09:59:04;98450.56;;;23.91;39.62
81961;BME280;71462;50.650;6.888;2023-07-24T10:01:09;98449.44;;;23.85;40.14
81961;BME280;71462;50.650;6.888;2023-07-24T10:03:13;98451.50;;;24.15;39.90
81961;BME280;71462;50.650;6.888;2023-07-24T10:05:15;98450.38;;;24.12;40.24
81961;BME280;71462;50.650;6.888;2023-07-24T10:07:19;98449.53;;;24.15;39.41
81961;BME280;71462;50.650;6.888;2023-07-24T10:09:23;98453.09;;;23.71;38.95
81961;BME280;71462;50.650;6.888;2023-07-24T10:11:32;98454.06;;;23.92;39.00
81961;BME280;71462;50.650;6.888;2023-07-24T10:13:36;98451.41;;;23.84;38.68
81961;BME280;71462;50.650;6.888;2023-07-24T10:15:39;98443.31;;;24.15;38.47
81961;BME280;71462;50.650;6.888;2023-07-24T10:17:47;98442.78;;;24.31;38.21
81961;BME280;71462;50.650;6.888;2023-07-24T10:19:50;98441.56;;;24.35;38.29
81961;BME280;71462;50.650;6.888;2023-07-24T10:21:54;98436.81;;;24.73;38.29
81961;BME280;71462;50.650;6.888;2023-07-24T10:23:59;98435.44;;;24.58;37.78
81961;BME280;71462;50.650;6.888;2023-07-24T10:26:05;98432.78;;;24.51;37.11
81961;BME280;71462;50.650;6.888;2023-07-24T10:28:31;98428.72;;;23.91;37.85
81961;BME280;71462;50.650;6.888;2023-07-24T10:30:34;98436.16;;;24.32;37.72
81961;BME280;71462;50.650;6.888;2023-07-24T10:32:47;98443.53;;;24.35;37.90
81961;BME280;71462;50.650;6.888;2023-07-24T10:35:07;98433.09;;;24.23;38.29
81961;BME280;71462;50.650;6.888;2023-07-24T10:37:45;98438.59;;;24.19;37.97
81961;BME280;71462;50.650;6.888;2023-07-24T10:42:59;98436.94;;;24.32;38.05
81961;BME280;71462;50.650;6.888;2023-07-24T10:47:53;98440.66;;;24.08;38.16
81961;BME280;71462;50.650;6.888;2023-07-24T10:50:06;98427.19;;;22.76;40.12
81961;BME280;71462;50.650;6.888;2023-07-24T10:52:09;98415.03;;;22.87;40.71
81961;BME280;71462;50.650;6.888;2023-07-24T10:54:11;98412.88;;;23.23;40.24
81961;BME280;71462;50.650;6.888;2023-07-24T10:56:15;98410.50;;;23.81;39.70
81961;BME280;71462;50.650;6.888;2023-07-24T10:58:42;98395.88;;;23.57;40.35
81961;BME280;71462;50.650;6.888;2023-07-24T11:01:11;98416.31;;;23.38;39.73
81961;BME280;71462;50.650;6.888;2023-07-24T11:03:17;98410.66;;;23.63;39.60